sensor_id;sensor_type;location;lat;lon;timestamp;P1;durP1;ratioP1;P2;durP2;ratioP2
40781;SDS011;26493;51.938;7.626;2023-12-14T00:01:51;18.70;;;16.90;;
40781;SDS011;26493;51.938;7.626;2023-12-14T00:04:17;18.27;;;16.52;;
40781;SDS011;26493;51.938;7.626;2023-12-14T00:06:43;17.77;;;16.08;;
40781;SDS011;26493;51.938;7.626;2023-12-14T00:09:09;18.27;;;16.48;;
40781;SDS011;26493;51.938;7.626;2023-12-14T00:11:38;18.27;;;16.48;;
40781;SDS011;26493;51.938;7.626;2023-12-14T00:14:05;18.98;;;17.17;;
40781;SDS011;26493;51.938;7.626;2023-12-14T00:16:31;18.95;;;17.15;;
40781;SDS011;26493;51.938;7.626;2023-12-14T00:18:57;18.58;;;16.77;;
40781;SDS011;26493;51.938;7.626;2023-12-14T00:21:23;18.77;;;16.98;;
40781;SDS011;26493;51.938;7.626;2023-12-14T00:23:49;19.13;;;17.33;;
40781;SDS011;26493;51.938;7.626;2023-12-14T00:26:15;18.60;;;16.80;;
40781;SDS011;26493;51.938;7.626;2023-12-14T00:28:42;18.73;;;16.92;;
40781;SDS011;26493;51.938;7.626;2023-12-14T00:31:08;18.70;;;16.90;;
40781;SDS011;26493;51.938;7.626;2023-12-14T00:33:34;19.00;;;17.20;;
40781;SDS011;26493;51.938;7.626;2023-12-14T00:36:00;19.20;;;17.40;;
40781;SDS011;26493;51.938;7.626;2023-12-14T00:38:26;18.63;;;16.83;;
40781;SDS011;26493;51.938;7.626;2023-12-14T00:40:52;18.75;;;16.95;;
40781;SDS011;26493;51.938;7.626;2023-12-14T00:43:18;18.73;;;16.92;;
40781;SDS011;26493;51.938;7.626;2023-12-14T00:45:44;18.63;;;16.83;;
40781;SDS011;26493;51.938;7.626;2023-12-14T00:48:10;18.92;;;17.13;;
40781;SDS011;26493;51.938;7.626;2023-12-14T00:50:37;18.98;;;17.17;;
40781;SDS011;26493;51.938;7.626;2023-12-14T00:53:03;18.95;;;17.15;;
40781;SDS011;26493;51.938;7.626;2023-12-14T00:55:28;19.20;;;17.40;;
40781;SDS011;26493;51.938;7.626;2023-12-14T00:57:54;19.05;;;17.25;;
40781;SDS011;26493;51.938;7.626;2023-12-14T01:00:20;18.10;;;16.30;;
40781;SDS011;26493;51.938;7.626;2023-12-14T01:02:46;18.13;;;16.33;;
40781;SDS011;26493;51.938;7.626;2023-12-14T01:05:12;17.88;;;16.10;;
40781;SDS011;26493;51.938;7.626;2023-12-14T01:07:38;18.20;;;16.40;;
40781;SDS011;26493;51.938;7.626;2023-12-14T01:10:05;17.77;;;16.08;;
40781;SDS011;26493;51.938;7.626;2023-12-14T01:12:31;17.63;;;15.93;;
40781;SDS011;26493;51.938;7.626;2023-12-14T01:14:57;17.85;;;16.15;;
40781;SDS011;26493;51.938;7.626;2023-12-14T01:17:23;21.83;;;19.80;;
40781;SDS011;26493;51.938;7.626;2023-12-14T01:19:49;18.10;;;16.30;;
40781;SDS011;26493;51.938;7.626;2023-12-14T01:22:15;18.50;;;16.70;;
40781;SDS011;26493;51.938;7.626;2023-12-14T01:24:41;19.42;;;17.63;;
40781;SDS011;26493;51.938;7.626;2023-12-14T01:27:07;18.73;;;16.92;;
40781;SDS011;26493;51.938;7.626;2023-12-14T01:29:35;17.70;;;16.00;;
40781;SDS011;26493;51.938;7.626;2023-12-14T01:32:01;17.77;;;16.08;;
40781;SDS011;26493;51.938;7.626;2023-12-14T01:34:27;17.92;;;16.15;;
40781;SDS011;26493;51.938;7.626;2023-12-14T01:36:53;17.48;;;15.77;;
40781;SDS011;26493;51.938;7.626;2023-12-14T01:39:19;17.63;;;15.93;;
40781;SDS011;26493;51.938;7.626;2023-12-14T01:41:45;17.45;;;15.75;;
40781;SDS011;26493;51.938;7.626;2023-12-14T01:44:11;16.98;;;15.27;;
40781;SDS011;26493;51.938;7.626;2023-12-14T01:46:37;16.92;;;15.23;;
40781;SDS011;26493;51.938;7.626;2023-12-14T01:49:03;16.40;;;14.70;;
40781;SDS011;26493;51.938;7.626;2023-12-14T01:51:29;16.83;;;15.13;;
40781;SDS011;26493;51.938;7.626;2023-12-14T01:53:54;16.77;;;15.07;;
40781;SDS011;26493;51.938;7.626;2023-12-14T01:56:20;16.80;;;15.10;;
40781;SDS011;26493;51.938;7.626;2023-12-14T01:58:46;16.92;;;15.23;;
40781;SDS011;26493;51.938;7.626;2023-12-14T02:03:45;16.98;;;15.27;;
40781;SDS011;26493;51.938;7.626;2023-12-14T02:06:11;16.45;;;14.75;;
40781;SDS011;26493;51.938;7.626;2023-12-14T02:08:37;16.17;;;14.48;;
40781;SDS011;26493;51.938;7.626;2023-12-14T02:11:03;16.27;;;14.55;;
40781;SDS011;26493;51.938;7.626;2023-12-14T02:13:29;16.02;;;14.32;;
40781;SDS011;26493;51.938;7.626;2023-12-14T02:15:55;16.20;;;14.50;;
40781;SDS011;26493;51.938;7.626;2023-12-14T02:18:21;16.42;;;14.73;;
40781;SDS011;26493;51.938;7.626;2023-12-14T02:20:47;16.40;;;14.70;;
40781;SDS011;26493;51.938;7.626;2023-12-14T02:23:13;15.93;;;14.23;;
40781;SDS011;26493;51.938;7.626;2023-12-14T02:25:39;15.93;;;14.23;;
40781;SDS011;26493;51.938;7.626;2023-12-14T02:28:05;16.13;;;14.43;;
40781;SDS011;26493;51.938;7.626;2023-12-14T02:30:31;16.40;;;14.70;;
40781;SDS011;26493;51.938;7.626;2023-12-14T02:32:57;15.98;;;14.27;;
40781;SDS011;26493;51.938;7.626;2023-12-14T02:35:23;19.13;;;16.35;;
40781;SDS011;26493;51.938;7.626;2023-12-14T02:37:49;16.13;;;14.43;;
40781;SDS011;26493;51.938;7.626;2023-12-14T02:40:15;17.30;;;15.50;;
40781;SDS011;26493;51.938;7.626;2023-12-14T02:42:41;15.98;;;14.27;;
40781;SDS011;26493;51.938;7.626;2023-12-14T02:45:07;15.80;;;14.10;;
40781;SDS011;26493;51.938;7.626;2023-12-14T02:47:34;15.88;;;14.18;;
40781;SDS011;26493;51.938;7.626;2023-12-14T02:50:00;15.80;;;14.10;;
40781;SDS011;26493;51.938;7.626;2023-12-14T02:52:26;15.90;;;14.20;;
40781;SDS011;26493;51.938;7.626;2023-12-14T02:54:52;15.85;;;14.15;;
40781;SDS011;26493;51.938;7.626;2023-12-14T02:57:18;15.30;;;13.52;;
40781;SDS011;26493;51.938;7.626;2023-12-14T02:59:44;15.50;;;13.80;;
40781;SDS011;26493;51.938;7.626;2023-12-14T03:02:10;15.20;;;13.27;;
40781;SDS011;26493;51.938;7.626;2023-12-14T03:04:39;15.38;;;13.68;;
40781;SDS011;26493;51.938;7.626;2023-12-14T03:07:05;15.20;;;13.32;;
40781;SDS011;26493;51.938;7.626;2023-12-14T03:09:31;15.00;;;12.93;;
40781;SDS011;26493;51.938;7.626;2023-12-14T03:11:57;15.05;;;13.25;;
40781;SDS011;26493;51.938;7.626;2023-12-14T03:14:23;14.88;;;12.65;;
40781;SDS011;26493;51.938;7.626;2023-12-14T03:16:49;14.93;;;12.63;;
40781;SDS011;26493;51.938;7.626;2023-12-14T03:19:15;14.75;;;12.07;;
40781;SDS011;26493;51.938;7.626;2023-12-14T03:21:44;14.80;;;12.18;;
40781;SDS011;26493;51.938;7.626;2023-12-14T03:24:10;14.70;;;12.00;;
40781;SDS011;26493;51.938;7.626;2023-12-14T03:26:36;14.63;;;11.75;;
40781;SDS011;26493;51.938;7.626;2023-12-14T03:29:02;14.77;;;12.18;;
40781;SDS011;26493;51.938;7.626;2023-12-14T03:31:28;14.65;;;11.55;;
40781;SDS011;26493;51.938;7.626;2023-12-14T03:33:54;14.45;;;11.10;;
40781;SDS011;26493;51.938;7.626;2023-12-14T03:36:20;14.40;;;10.90;;
40781;SDS011;26493;51.938;7.626;2023-12-14T03:38:47;14.38;;;10.88;;
40781;SDS011;26493;51.938;7.626;2023-12-14T03:41:13;14.30;;;10.82;;
40781;SDS011;26493;51.938;7.626;2023-12-14T03:43:39;14.45;;;11.20;;
40781;SDS011;26493;51.938;7.626;2023-12-14T03:46:05;14.60;;;11.60;;
40781;SDS011;26493;51.938;7.626;2023-12-14T03:48:32;14.50;;;11.35;;
40781;SDS011;26493;51.938;7.626;2023-12-14T03:51:01;14.55;;;11.30;;
40781;SDS011;26493;51.938;7.626;2023-12-14T03:53:28;14.52;;;11.38;;
40781;SDS011;26493;51.938;7.626;2023-12-14T03:55:54;14.50;;;11.30;;
40781;SDS011;26493;51.938;7.626;2023-12-14T03:58:20;14.63;;;11.35;;
40781;SDS011;26493;51.938;7.626;2023-12-14T04:00:46;14.50;;;11.40;;
40781;SDS011;26493;51.938;7.626;2023-12-14T04:03:12;14.50;;;11.25;;
40781;SDS011;26493;51.938;7.626;2023-12-14T04:05:38;14.68;;;11.80;;
40781;SDS011;26493;51.938;7.626;2023-12-14T04:08:04;14.45;;;11.05;;
40781;SDS011;26493;51.938;7.626;2023-12-14T04:10:30;14.30;;;10.85;;
40781;SDS011;26493;51.938;7.626;2023-12-14T04:12:56;14.40;;;11.05;;
40781;SDS011;26493;51.938;7.626;2023-12-14T04:15:22;14.40;;;11.02;;
40781;SDS011;26493;51.938;7.626;2023-12-14T04:17:48;14.48;;;11.20;;
40781;SDS011;26493;51.938;7.626;2023-12-14T04:20:14;14.32;;;10.80;;
40781;SDS011;26493;51.938;7.626;2023-12-14T04:22:41;14.30;;;10.80;;
40781;SDS011;26493;51.938;7.626;2023-12-14T04:25:07;14.20;;;10.43;;
40781;SDS011;26493;51.938;7.626;2023-12-14T04:27:33;14.10;;;10.50;;
40781;SDS011;26493;51.938;7.626;2023-12-14T04:29:59;14.20;;;10.32;;
40781;SDS011;26493;51.938;7.626;2023-12-14T04:32:25;14.02;;;9.88;;
40781;SDS011;26493;51.938;7.626;2023-12-14T04:34:51;13.88;;;9.43;;
40781;SDS011;26493;51.938;7.626;2023-12-14T04:37:17;13.68;;;8.95;;
40781;SDS011;26493;51.938;7.626;2023-12-14T04:39:43;13.55;;;8.48;;
40781;SDS011;26493;51.938;7.626;2023-12-14T04:42:09;13.45;;;8.43;;
40781;SDS011;26493;51.938;7.626;2023-12-14T04:44:35;13.38;;;8.18;;
40781;SDS011;26493;51.938;7.626;2023-12-14T04:47:01;13.35;;;8.00;;
40781;SDS011;26493;51.938;7.626;2023-12-14T04:49:27;12.95;;;7.60;;
40781;SDS011;26493;51.938;7.626;2023-12-14T04:51:53;13.23;;;7.78;;
40781;SDS011;26493;51.938;7.626;2023-12-14T04:54:19;13.50;;;8.20;;
40781;SDS011;26493;51.938;7.626;2023-12-14T04:56:46;13.65;;;8.02;;
40781;SDS011;26493;51.938;7.626;2023-12-14T04:59:12;13.13;;;7.70;;
40781;SDS011;26493;51.938;7.626;2023-12-14T05:01:38;13.10;;;7.78;;
40781;SDS011;26493;51.938;7.626;2023-12-14T05:04:04;12.90;;;7.60;;
40781;SDS011;26493;51.938;7.626;2023-12-14T05:06:30;13.63;;;8.70;;
40781;SDS011;26493;51.938;7.626;2023-12-14T05:08:58;12.73;;;7.45;;
40781;SDS011;26493;51.938;7.626;2023-12-14T05:11:26;13.05;;;7.60;;
40781;SDS011;26493;51.938;7.626;2023-12-14T05:13:52;13.00;;;7.60;;
40781;SDS011;26493;51.938;7.626;2023-12-14T05:16:18;12.70;;;7.40;;
40781;SDS011;26493;51.938;7.626;2023-12-14T05:18:44;12.90;;;7.47;;
40781;SDS011;26493;51.938;7.626;2023-12-14T05:21:11;13.10;;;7.60;;
40781;SDS011;26493;51.938;7.626;2023-12-14T05:23:41;12.40;;;7.28;;
40781;SDS011;26493;51.938;7.626;2023-12-14T05:26:08;12.75;;;7.38;;
40781;SDS011;26493;51.938;7.626;2023-12-14T05:28:34;12.20;;;7.07;;
40781;SDS011;26493;51.938;7.626;2023-12-14T05:31:00;12.55;;;7.30;;
40781;SDS011;26493;51.938;7.626;2023-12-14T05:33:26;12.27;;;7.10;;
40781;SDS011;26493;51.938;7.626;2023-12-14T05:35:52;13.05;;;8.43;;
40781;SDS011;26493;51.938;7.626;2023-12-14T05:38:19;11.90;;;6.93;;
40781;SDS011;26493;51.938;7.626;2023-12-14T05:40:44;13.52;;;7.72;;
40781;SDS011;26493;51.938;7.626;2023-12-14T05:43:10;12.75;;;7.35;;
40781;SDS011;26493;51.938;7.626;2023-12-14T05:45:36;13.05;;;7.60;;
40781;SDS011;26493;51.938;7.626;2023-12-14T05:48:02;12.60;;;7.30;;
40781;SDS011;26493;51.938;7.626;2023-12-14T05:50:31;12.57;;;7.32;;
40781;SDS011;26493;51.938;7.626;2023-12-14T05:52:57;12.48;;;7.20;;
40781;SDS011;26493;51.938;7.626;2023-12-14T05:55:23;12.82;;;7.40;;
40781;SDS011;26493;51.938;7.626;2023-12-14T05:57:49;12.50;;;7.20;;
40781;SDS011;26493;51.938;7.626;2023-12-14T06:00:17;12.50;;;7.25;;
40781;SDS011;26493;51.938;7.626;2023-12-14T06:02:43;11.73;;;6.80;;
40781;SDS011;26493;51.938;7.626;2023-12-14T06:05:09;11.80;;;6.90;;
40781;SDS011;26493;51.938;7.626;2023-12-14T06:07:35;12.00;;;6.95;;
40781;SDS011;26493;51.938;7.626;2023-12-14T06:10:02;12.30;;;7.10;;
40781;SDS011;26493;51.938;7.626;2023-12-14T06:12:28;12.60;;;7.30;;
40781;SDS011;26493;51.938;7.626;2023-12-14T06:14:54;12.57;;;7.30;;
40781;SDS011;26493;51.938;7.626;2023-12-14T06:17:20;12.77;;;7.40;;
40781;SDS011;26493;51.938;7.626;2023-12-14T06:19:49;15.30;;;8.63;;
40781;SDS011;26493;51.938;7.626;2023-12-14T06:22:15;12.52;;;7.30;;
40781;SDS011;26493;51.938;7.626;2023-12-14T06:24:41;12.48;;;7.20;;
40781;SDS011;26493;51.938;7.626;2023-12-14T06:27:07;12.32;;;7.20;;
40781;SDS011;26493;51.938;7.626;2023-12-14T06:29:33;12.65;;;7.40;;
40781;SDS011;26493;51.938;7.626;2023-12-14T06:31:59;12.30;;;7.20;;
40781;SDS011;26493;51.938;7.626;2023-12-14T06:34:25;12.63;;;7.80;;
40781;SDS011;26493;51.938;7.626;2023-12-14T06:36:51;12.23;;;7.13;;
40781;SDS011;26493;51.938;7.626;2023-12-14T06:39:17;11.95;;;7.00;;
40781;SDS011;26493;51.938;7.626;2023-12-14T06:41:43;12.88;;;7.85;;
40781;SDS011;26493;51.938;7.626;2023-12-14T06:44:09;12.30;;;7.10;;
40781;SDS011;26493;51.938;7.626;2023-12-14T06:46:35;11.35;;;6.63;;
40781;SDS011;26493;51.938;7.626;2023-12-14T06:49:01;13.68;;;8.57;;
40781;SDS011;26493;51.938;7.626;2023-12-14T06:51:27;11.13;;;6.47;;
40781;SDS011;26493;51.938;7.626;2023-12-14T06:53:53;11.18;;;6.57;;
40781;SDS011;26493;51.938;7.626;2023-12-14T06:56:19;11.02;;;6.43;;
40781;SDS011;26493;51.938;7.626;2023-12-14T06:58:45;11.00;;;6.50;;
40781;SDS011;26493;51.938;7.626;2023-12-14T07:03:40;10.98;;;6.45;;
40781;SDS011;26493;51.938;7.626;2023-12-14T07:06:07;10.52;;;6.20;;
40781;SDS011;26493;51.938;7.626;2023-12-14T07:08:33;11.35;;;6.60;;
40781;SDS011;26493;51.938;7.626;2023-12-14T07:10:59;11.45;;;6.70;;
40781;SDS011;26493;51.938;7.626;2023-12-14T07:13:25;11.48;;;6.70;;
40781;SDS011;26493;51.938;7.626;2023-12-14T07:15:51;11.30;;;6.60;;
40781;SDS011;26493;51.938;7.626;2023-12-14T07:18:17;11.13;;;6.60;;
40781;SDS011;26493;51.938;7.626;2023-12-14T07:20:43;13.45;;;9.65;;
40781;SDS011;26493;51.938;7.626;2023-12-14T07:23:09;11.23;;;6.53;;
40781;SDS011;26493;51.938;7.626;2023-12-14T07:25:35;11.45;;;6.88;;
40781;SDS011;26493;51.938;7.626;2023-12-14T07:28:01;11.88;;;6.90;;
40781;SDS011;26493;51.938;7.626;2023-12-14T07:30:27;12.20;;;7.10;;
40781;SDS011;26493;51.938;7.626;2023-12-14T07:32:53;11.70;;;7.07;;
40781;SDS011;26493;51.938;7.626;2023-12-14T07:35:19;19.65;;;8.25;;
40781;SDS011;26493;51.938;7.626;2023-12-14T07:37:45;11.70;;;6.90;;
40781;SDS011;26493;51.938;7.626;2023-12-14T07:40:11;11.50;;;6.70;;
40781;SDS011;26493;51.938;7.626;2023-12-14T07:42:37;11.43;;;6.65;;
40781;SDS011;26493;51.938;7.626;2023-12-14T07:45:03;12.38;;;7.50;;
40781;SDS011;26493;51.938;7.626;2023-12-14T07:47:30;11.35;;;6.60;;
40781;SDS011;26493;51.938;7.626;2023-12-14T07:49:56;11.57;;;6.78;;
40781;SDS011;26493;51.938;7.626;2023-12-14T07:52:22;12.75;;;6.93;;
40781;SDS011;26493;51.938;7.626;2023-12-14T07:54:48;11.60;;;6.75;;
40781;SDS011;26493;51.938;7.626;2023-12-14T07:57:14;11.68;;;6.80;;
40781;SDS011;26493;51.938;7.626;2023-12-14T07:59:40;11.70;;;6.80;;
40781;SDS011;26493;51.938;7.626;2023-12-14T08:02:06;11.63;;;6.80;;
40781;SDS011;26493;51.938;7.626;2023-12-14T08:04:32;12.80;;;8.45;;
40781;SDS011;26493;51.938;7.626;2023-12-14T08:06:58;12.10;;;7.00;;
40781;SDS011;26493;51.938;7.626;2023-12-14T08:09:24;11.90;;;6.90;;
40781;SDS011;26493;51.938;7.626;2023-12-14T08:11:50;12.02;;;7.03;;
40781;SDS011;26493;51.938;7.626;2023-12-14T08:14:17;12.02;;;7.00;;
40781;SDS011;26493;51.938;7.626;2023-12-14T08:16:43;12.88;;;7.53;;
40781;SDS011;26493;51.938;7.626;2023-12-14T08:19:09;12.60;;;7.30;;
40781;SDS011;26493;51.938;7.626;2023-12-14T08:21:36;12.40;;;7.22;;
40781;SDS011;26493;51.938;7.626;2023-12-14T08:24:02;12.18;;;7.10;;
40781;SDS011;26493;51.938;7.626;2023-12-14T08:26:28;12.32;;;7.15;;
40781;SDS011;26493;51.938;7.626;2023-12-14T08:28:54;12.18;;;7.13;;
40781;SDS011;26493;51.938;7.626;2023-12-14T08:31:20;12.60;;;7.60;;
40781;SDS011;26493;51.938;7.626;2023-12-14T08:33:46;12.55;;;7.30;;
40781;SDS011;26493;51.938;7.626;2023-12-14T08:36:14;12.32;;;7.20;;
40781;SDS011;26493;51.938;7.626;2023-12-14T08:38:40;12.50;;;7.28;;
40781;SDS011;26493;51.938;7.626;2023-12-14T08:41:06;12.85;;;7.95;;
40781;SDS011;26493;51.938;7.626;2023-12-14T08:43:32;12.50;;;7.25;;
40781;SDS011;26493;51.938;7.626;2023-12-14T08:45:58;12.70;;;7.38;;
40781;SDS011;26493;51.938;7.626;2023-12-14T08:48:24;12.52;;;7.30;;
40781;SDS011;26493;51.938;7.626;2023-12-14T08:50:53;12.20;;;7.10;;
40781;SDS011;26493;51.938;7.626;2023-12-14T08:53:20;12.00;;;7.00;;
40781;SDS011;26493;51.938;7.626;2023-12-14T08:55:46;12.57;;;7.30;;
40781;SDS011;26493;51.938;7.626;2023-12-14T08:58:12;13.30;;;8.25;;
40781;SDS011;26493;51.938;7.626;2023-12-14T09:00:38;12.85;;;7.53;;
40781;SDS011;26493;51.938;7.626;2023-12-14T09:03:04;12.60;;;7.32;;
40781;SDS011;26493;51.938;7.626;2023-12-14T09:05:30;12.75;;;7.45;;
40781;SDS011;26493;51.938;7.626;2023-12-14T09:07:56;13.20;;;8.15;;
40781;SDS011;26493;51.938;7.626;2023-12-14T09:10:24;12.77;;;7.40;;
40781;SDS011;26493;51.938;7.626;2023-12-14T09:12:50;12.95;;;8.25;;
40781;SDS011;26493;51.938;7.626;2023-12-14T09:15:16;12.50;;;7.22;;
40781;SDS011;26493;51.938;7.626;2023-12-14T09:17:42;12.50;;;7.28;;
40781;SDS011;26493;51.938;7.626;2023-12-14T09:20:09;12.23;;;7.10;;
40781;SDS011;26493;51.938;7.626;2023-12-14T09:22:36;12.15;;;7.03;;
40781;SDS011;26493;51.938;7.626;2023-12-14T09:25:02;12.32;;;7.20;;
40781;SDS011;26493;51.938;7.626;2023-12-14T09:27:28;12.30;;;7.10;;
40781;SDS011;26493;51.938;7.626;2023-12-14T09:29:55;12.07;;;7.00;;
40781;SDS011;26493;51.938;7.626;2023-12-14T09:32:21;11.60;;;6.80;;
40781;SDS011;26493;51.938;7.626;2023-12-14T09:34:47;11.63;;;6.80;;
40781;SDS011;26493;51.938;7.626;2023-12-14T09:37:13;12.15;;;7.07;;
40781;SDS011;26493;51.938;7.626;2023-12-14T09:39:39;12.43;;;7.20;;
40781;SDS011;26493;51.938;7.626;2023-12-14T09:42:06;13.20;;;7.68;;
40781;SDS011;26493;51.938;7.626;2023-12-14T09:44:33;12.80;;;7.43;;
40781;SDS011;26493;51.938;7.626;2023-12-14T09:47:00;13.00;;;7.50;;
40781;SDS011;26493;51.938;7.626;2023-12-14T09:49:27;12.55;;;7.28;;
40781;SDS011;26493;51.938;7.626;2023-12-14T09:51:55;12.63;;;7.50;;
40781;SDS011;26493;51.938;7.626;2023-12-14T09:54:21;12.98;;;7.70;;
40781;SDS011;26493;51.938;7.626;2023-12-14T09:56:47;11.82;;;6.90;;
40781;SDS011;26493;51.938;7.626;2023-12-14T09:59:14;12.10;;;7.20;;
40781;SDS011;26493;51.938;7.626;2023-12-14T10:01:40;11.80;;;6.90;;
40781;SDS011;26493;51.938;7.626;2023-12-14T10:06:32;12.73;;;8.05;;
40781;SDS011;26493;51.938;7.626;2023-12-14T10:08:58;13.48;;;9.23;;
40781;SDS011;26493;51.938;7.626;2023-12-14T10:11:24;11.35;;;6.68;;
40781;SDS011;26493;51.938;7.626;2023-12-14T10:13:50;13.20;;;7.80;;
40781;SDS011;26493;51.938;7.626;2023-12-14T10:16:26;12.10;;;7.00;;
40781;SDS011;26493;51.938;7.626;2023-12-14T10:18:53;11.80;;;6.90;;
40781;SDS011;26493;51.938;7.626;2023-12-14T10:21:19;12.15;;;7.10;;
40781;SDS011;26493;51.938;7.626;2023-12-14T10:23:45;11.57;;;6.88;;
40781;SDS011;26493;51.938;7.626;2023-12-14T10:26:11;13.10;;;8.95;;
40781;SDS011;26493;51.938;7.626;2023-12-14T10:28:39;12.90;;;8.48;;
40781;SDS011;26493;51.938;7.626;2023-12-14T10:31:05;12.50;;;7.97;;
40781;SDS011;26493;51.938;7.626;2023-12-14T10:33:31;12.25;;;7.28;;
40781;SDS011;26493;51.938;7.626;2023-12-14T10:35:58;11.60;;;7.38;;
40781;SDS011;26493;51.938;7.626;2023-12-14T10:38:24;11.23;;;6.55;;
40781;SDS011;26493;51.938;7.626;2023-12-14T10:40:51;10.65;;;6.25;;
40781;SDS011;26493;51.938;7.626;2023-12-14T10:43:18;12.68;;;7.40;;
40781;SDS011;26493;51.938;7.626;2023-12-14T10:45:44;10.82;;;6.32;;
40781;SDS011;26493;51.938;7.626;2023-12-14T10:48:10;10.95;;;6.43;;
40781;SDS011;26493;51.938;7.626;2023-12-14T10:50:38;13.23;;;7.60;;
40781;SDS011;26493;51.938;7.626;2023-12-14T10:53:05;11.35;;;6.63;;
40781;SDS011;26493;51.938;7.626;2023-12-14T10:55:33;11.20;;;6.60;;
40781;SDS011;26493;51.938;7.626;2023-12-14T10:58:03;11.02;;;6.40;;
40781;SDS011;26493;51.938;7.626;2023-12-14T11:00:30;11.60;;;6.85;;
40781;SDS011;26493;51.938;7.626;2023-12-14T11:02:56;11.45;;;6.70;;
40781;SDS011;26493;51.938;7.626;2023-12-14T11:05:23;11.27;;;6.60;;
40781;SDS011;26493;51.938;7.626;2023-12-14T11:08:03;11.60;;;7.22;;
40781;SDS011;26493;51.938;7.626;2023-12-14T11:13:06;14.48;;;8.80;;
40781;SDS011;26493;51.938;7.626;2023-12-14T11:15:36;12.32;;;8.52;;
40781;SDS011;26493;51.938;7.626;2023-12-14T11:18:19;11.05;;;6.50;;
40781;SDS011;26493;51.938;7.626;2023-12-14T11:25:39;21.08;;;9.63;;
40781;SDS011;26493;51.938;7.626;2023-12-14T11:28:09;13.00;;;7.85;;
40781;SDS011;26493;51.938;7.626;2023-12-14T11:30:35;11.25;;;7.20;;
40781;SDS011;26493;51.938;7.626;2023-12-14T11:33:02;13.25;;;7.18;;
40781;SDS011;26493;51.938;7.626;2023-12-14T11:35:28;10.30;;;6.07;;
40781;SDS011;26493;51.938;7.626;2023-12-14T11:37:55;10.80;;;6.40;;
40781;SDS011;26493;51.938;7.626;2023-12-14T11:40:22;13.48;;;8.98;;
40781;SDS011;26493;51.938;7.626;2023-12-14T11:43:00;18.23;;;11.18;;
40781;SDS011;26493;51.938;7.626;2023-12-14T11:45:26;16.45;;;9.48;;
40781;SDS011;26493;51.938;7.626;2023-12-14T11:47:52;13.38;;;9.50;;
40781;SDS011;26493;51.938;7.626;2023-12-14T11:50:19;11.02;;;6.45;;
40781;SDS011;26493;51.938;7.626;2023-12-14T11:52:45;11.68;;;6.80;;
40781;SDS011;26493;51.938;7.626;2023-12-14T11:55:11;10.40;;;6.10;;
40781;SDS011;26493;51.938;7.626;2023-12-14T11:57:37;11.30;;;6.82;;
40781;SDS011;26493;51.938;7.626;2023-12-14T12:00:04;17.55;;;11.35;;
40781;SDS011;26493;51.938;7.626;2023-12-14T12:02:30;14.32;;;7.88;;
40781;SDS011;26493;51.938;7.626;2023-12-14T12:04:56;10.70;;;6.28;;
40781;SDS011;26493;51.938;7.626;2023-12-14T12:07:22;13.23;;;6.40;;
40781;SDS011;26493;51.938;7.626;2023-12-14T12:09:48;11.98;;;6.82;;
40781;SDS011;26493;51.938;7.626;2023-12-14T12:12:14;11.10;;;6.50;;
40781;SDS011;26493;51.938;7.626;2023-12-14T12:14:40;11.10;;;6.47;;
40781;SDS011;26493;51.938;7.626;2023-12-14T12:17:07;11.00;;;6.43;;
40781;SDS011;26493;51.938;7.626;2023-12-14T12:19:36;11.20;;;6.50;;
40781;SDS011;26493;51.938;7.626;2023-12-14T12:22:03;12.85;;;7.35;;
40781;SDS011;26493;51.938;7.626;2023-12-14T12:24:29;11.40;;;6.60;;
40781;SDS011;26493;51.938;7.626;2023-12-14T12:26:55;11.95;;;7.60;;
40781;SDS011;26493;51.938;7.626;2023-12-14T12:29:22;11.23;;;6.57;;
40781;SDS011;26493;51.938;7.626;2023-12-14T12:31:48;11.55;;;6.82;;
40781;SDS011;26493;51.938;7.626;2023-12-14T12:34:14;12.10;;;7.10;;
40781;SDS011;26493;51.938;7.626;2023-12-14T12:36:40;30.75;;;27.38;;
40781;SDS011;26493;51.938;7.626;2023-12-14T12:39:06;11.30;;;6.60;;
40781;SDS011;26493;51.938;7.626;2023-12-14T12:41:33;11.35;;;6.60;;
40781;SDS011;26493;51.938;7.626;2023-12-14T12:43:59;11.82;;;6.90;;
40781;SDS011;26493;51.938;7.626;2023-12-14T12:46:37;11.80;;;6.90;;
40781;SDS011;26493;51.938;7.626;2023-12-14T12:49:04;11.73;;;6.88;;
40781;SDS011;26493;51.938;7.626;2023-12-14T12:51:30;11.73;;;6.82;;
40781;SDS011;26493;51.938;7.626;2023-12-14T12:53:59;10.98;;;6.45;;
40781;SDS011;26493;51.938;7.626;2023-12-14T12:56:25;11.88;;;6.95;;
40781;SDS011;26493;51.938;7.626;2023-12-14T12:58:52;11.10;;;6.63;;
40781;SDS011;26493;51.938;7.626;2023-12-14T13:01:22;11.52;;;6.70;;
40781;SDS011;26493;51.938;7.626;2023-12-14T13:03:54;12.35;;;7.80;;
40781;SDS011;26493;51.938;7.626;2023-12-14T13:06:22;11.40;;;6.70;;
40781;SDS011;26493;51.938;7.626;2023-12-14T13:08:48;14.30;;;7.97;;
40781;SDS011;26493;51.938;7.626;2023-12-14T13:11:14;11.68;;;7.30;;
40781;SDS011;26493;51.938;7.626;2023-12-14T13:13:40;11.23;;;6.60;;
40781;SDS011;26493;51.938;7.626;2023-12-14T13:16:08;11.05;;;6.47;;
40781;SDS011;26493;51.938;7.626;2023-12-14T13:18:34;10.50;;;6.20;;
40781;SDS011;26493;51.938;7.626;2023-12-14T13:21:00;10.25;;;6.03;;
40781;SDS011;26493;51.938;7.626;2023-12-14T13:23:26;11.18;;;6.70;;
40781;SDS011;26493;51.938;7.626;2023-12-14T13:25:52;11.70;;;7.15;;
40781;SDS011;26493;51.938;7.626;2023-12-14T13:28:18;11.75;;;6.80;;
40781;SDS011;26493;51.938;7.626;2023-12-14T13:30:44;12.82;;;7.32;;
40781;SDS011;26493;51.938;7.626;2023-12-14T13:33:11;10.95;;;6.50;;
40781;SDS011;26493;51.938;7.626;2023-12-14T13:35:37;12.20;;;7.55;;
40781;SDS011;26493;51.938;7.626;2023-12-14T13:38:03;14.77;;;8.95;;
40781;SDS011;26493;51.938;7.626;2023-12-14T13:40:29;11.98;;;7.15;;
40781;SDS011;26493;51.938;7.626;2023-12-14T13:42:55;15.05;;;8.85;;
40781;SDS011;26493;51.938;7.626;2023-12-14T13:45:25;11.75;;;7.15;;
40781;SDS011;26493;51.938;7.626;2023-12-14T13:47:54;10.98;;;6.50;;
40781;SDS011;26493;51.938;7.626;2023-12-14T13:50:20;12.02;;;6.65;;
40781;SDS011;26493;51.938;7.626;2023-12-14T13:52:46;11.90;;;6.90;;
40781;SDS011;26493;51.938;7.626;2023-12-14T13:55:12;10.93;;;6.35;;
40781;SDS011;26493;51.938;7.626;2023-12-14T13:57:38;11.80;;;6.70;;
40781;SDS011;26493;51.938;7.626;2023-12-14T14:00:05;11.82;;;7.00;;
40781;SDS011;26493;51.938;7.626;2023-12-14T14:02:31;11.30;;;6.70;;
40781;SDS011;26493;51.938;7.626;2023-12-14T14:04:58;14.20;;;7.00;;
40781;SDS011;26493;51.938;7.626;2023-12-14T14:07:24;10.95;;;6.40;;
40781;SDS011;26493;51.938;7.626;2023-12-14T14:09:50;11.30;;;6.60;;
40781;SDS011;26493;51.938;7.626;2023-12-14T14:12:16;11.95;;;8.15;;
40781;SDS011;26493;51.938;7.626;2023-12-14T14:14:42;10.52;;;6.20;;
40781;SDS011;26493;51.938;7.626;2023-12-14T14:17:08;11.30;;;6.60;;
40781;SDS011;26493;51.938;7.626;2023-12-14T14:19:34;10.45;;;6.18;;
40781;SDS011;26493;51.938;7.626;2023-12-14T14:22:00;10.10;;;5.95;;
40781;SDS011;26493;51.938;7.626;2023-12-14T14:24:26;11.27;;;6.63;;
40781;SDS011;26493;51.938;7.626;2023-12-14T14:26:52;10.70;;;6.50;;
40781;SDS011;26493;51.938;7.626;2023-12-14T14:29:18;11.02;;;6.70;;
40781;SDS011;26493;51.938;7.626;2023-12-14T14:31:44;10.82;;;6.35;;
40781;SDS011;26493;51.938;7.626;2023-12-14T14:34:10;10.90;;;6.40;;
40781;SDS011;26493;51.938;7.626;2023-12-14T14:36:36;10.77;;;6.28;;
40781;SDS011;26493;51.938;7.626;2023-12-14T14:39:02;10.48;;;6.15;;
40781;SDS011;26493;51.938;7.626;2023-12-14T14:41:29;10.25;;;6.00;;